createdAt,value
2019-04-28T00:02:02.805Z,9.80
2019-04-28T00:04:31.610Z,9.80
2019-04-28T00:07:01.758Z,9.80
2019-04-28T00:09:31.373Z,9.80
2019-04-28T00:12:01.731Z,9.80
2019-04-28T00:14:31.743Z,9.80
2019-04-28T00:17:01.111Z,9.70
2019-04-28T00:19:31.014Z,9.70
2019-04-28T00:22:01.232Z,9.80
2019-04-28T00:24:47.273Z,9.70
2019-04-28T00:27:16.604Z,9.70
2019-04-28T00:29:46.172Z,9.70
2019-04-28T00:32:14.908Z,9.70
2019-04-28T00:34:43.423Z,9.70
2019-04-28T00:37:17.193Z,9.70
2019-04-28T00:39:45.713Z,9.60
2019-04-28T00:42:14.134Z,9.60
2019-04-28T00:44:43.370Z,9.60
2019-04-28T00:47:13.685Z,9.60
2019-04-28T00:49:47.714Z,9.50
2019-04-28T00:52:17.431Z,9.50
2019-04-28T00:54:47.306Z,9.50
2019-04-28T00:57:16.508Z,9.50
2019-04-28T00:59:54.160Z,9.50
2019-04-28T01:02:21.181Z,9.50
2019-04-28T01:04:51.330Z,9.50
2019-04-28T01:07:21.303Z,9.50
2019-04-28T01:09:51.662Z,9.50
2019-04-28T01:12:21.273Z,9.50
2019-04-28T01:14:52.235Z,9.40
2019-04-28T01:17:21.937Z,9.50
2019-04-28T01:19:51.983Z,9.40
2019-04-28T01:22:20.387Z,9.40
2019-04-28T01:24:49.727Z,9.40
2019-04-28T01:27:30.404Z,9.40
2019-04-28T01:30:08.286Z,9.40
2019-04-28T01:32:50.083Z,9.40
2019-04-28T01:35:20.839Z,9.40
2019-04-28T01:37:51.409Z,9.40
2019-04-28T01:40:20.544Z,9.40
2019-04-28T01:42:49.986Z,9.40
2019-04-28T01:45:20.435Z,9.40
2019-04-28T01:47:50.396Z,9.40
2019-04-28T01:50:20.473Z,9.40
2019-04-28T01:52:49.677Z,9.40
2019-04-28T01:55:19.995Z,9.40
2019-04-28T01:57:49.818Z,9.40
2019-04-28T02:00:25.075Z,9.30
2019-04-28T02:02:50.499Z,9.30
2019-04-28T02:05:19.654Z,9.30
2019-04-28T02:07:50.371Z,9.30
2019-04-28T02:10:21.513Z,9.30
2019-04-28T02:12:50.313Z,9.30
2019-04-28T02:15:20.210Z,9.30
2019-04-28T02:17:51.562Z,9.20
2019-04-28T02:20:23.758Z,9.20
2019-04-28T02:22:56.476Z,9.20
2019-04-28T02:25:24.943Z,9.20
2019-04-28T02:27:53.369Z,9.20
2019-04-28T02:30:40.199Z,9.20
2019-04-28T02:32:53.610Z,9.10
2019-04-28T02:35:22.018Z,9.10
2019-04-28T02:37:50.671Z,9.10
2019-04-28T02:40:20.792Z,9.00
2019-04-28T02:42:52.154Z,9.00
2019-04-28T02:45:21.719Z,9.00
2019-04-28T02:47:52.516Z,9.00
2019-04-28T02:50:23.541Z,9.00
2019-04-28T02:52:58.029Z,9.00
2019-04-28T02:55:26.432Z,9.00
2019-04-28T02:57:54.942Z,8.90
2019-04-28T03:00:23.579Z,9.00
2019-04-28T03:02:52.198Z,9.00
2019-04-28T03:05:21.515Z,9.00
2019-04-28T03:07:51.725Z,9.00
2019-04-28T03:10:21.330Z,9.00
2019-04-28T03:12:51.813Z,8.90
2019-04-28T03:15:20.820Z,9.00
2019-04-28T03:17:52.541Z,9.00
2019-04-28T03:20:21.106Z,8.90
2019-04-28T03:22:51.204Z,9.00
2019-04-28T03:25:21.627Z,8.90
2019-04-28T03:28:03.971Z,9.00
2019-04-28T03:30:36.509Z,9.00
2019-04-28T03:33:13.224Z,8.90
2019-04-28T03:35:37.947Z,8.90
2019-04-28T03:38:06.546Z,8.90
2019-04-28T03:40:34.959Z,8.90
2019-04-28T03:43:03.453Z,8.90
2019-04-28T03:45:34.034Z,8.90
2019-04-28T03:48:02.712Z,8.90
2019-04-28T03:50:51.467Z,8.90
2019-04-28T03:53:20.710Z,8.90
2019-04-28T03:55:51.285Z,8.90
2019-04-28T03:58:23.563Z,8.80
2019-04-28T04:00:50.597Z,8.80
2019-04-28T04:03:21.140Z,8.80
2019-04-28T04:05:50.840Z,8.90
2019-04-28T04:08:21.006Z,8.90
2019-04-28T04:11:10.861Z,8.90
2019-04-28T04:13:41.660Z,8.90
2019-04-28T04:16:31.044Z,8.90
2019-04-28T04:19:01.470Z,8.90
2019-04-28T04:21:31.035Z,8.80
2019-04-28T04:24:00.994Z,8.80
2019-04-28T04:26:32.836Z,8.80
2019-04-28T04:29:00.965Z,8.80
2019-04-28T04:31:31.740Z,8.90
2019-04-28T04:34:02.609Z,8.90
2019-04-28T04:36:31.017Z,8.80
2019-04-28T04:39:01.721Z,8.90
2019-04-28T04:41:30.590Z,8.80
2019-04-28T04:44:01.207Z,8.90
2019-04-28T04:46:31.398Z,8.90
2019-04-28T04:49:00.691Z,8.90
2019-04-28T04:51:30.584Z,8.90
2019-04-28T04:54:00.978Z,8.90
2019-04-28T04:56:30.211Z,8.90
2019-04-28T04:59:02.330Z,8.90
2019-04-28T05:01:50.265Z,9.00
2019-04-28T05:04:20.803Z,8.90
2019-04-28T05:06:49.704Z,8.90
2019-04-28T05:09:19.783Z,8.90
2019-04-28T05:11:49.960Z,8.90
2019-04-28T05:14:19.916Z,8.90
2019-04-28T05:16:49.760Z,8.90
2019-04-28T05:19:19.913Z,8.90
2019-04-28T05:21:49.882Z,8.90
2019-04-28T05:27:17.369Z,8.90
2019-04-28T05:29:43.940Z,8.90
2019-04-28T05:32:12.376Z,9.00
2019-04-28T05:34:46.764Z,9.00
2019-04-28T05:37:10.978Z,9.00
2019-04-28T05:39:40.922Z,9.00
2019-04-28T05:42:11.266Z,9.10
2019-04-28T05:44:40.781Z,9.10
2019-04-28T05:47:09.935Z,9.20
2019-04-28T05:49:46.175Z,9.20
2019-04-28T05:52:32.617Z,9.20
2019-04-28T05:55:21.071Z,9.20
2019-04-28T05:57:56.746Z,9.20
2019-04-28T06:00:29.839Z,9.20
2019-04-28T06:03:00.691Z,9.20
2019-04-28T06:05:30.340Z,9.20
2019-04-28T06:08:01.310Z,9.30
2019-04-28T06:10:29.974Z,9.30
2019-04-28T06:12:59.739Z,9.30
2019-04-28T06:15:29.511Z,9.30
2019-04-28T06:17:59.995Z,9.30
2019-04-28T06:20:30.395Z,9.40
2019-04-28T06:22:59.117Z,9.50
2019-04-28T06:25:27.530Z,9.50
2019-04-28T06:27:55.950Z,9.60
2019-04-28T06:30:24.397Z,9.50
2019-04-28T06:32:52.807Z,9.60
2019-04-28T06:35:24.226Z,9.80
2019-04-28T06:37:52.646Z,9.70
2019-04-28T06:40:21.032Z,9.80
2019-04-28T06:42:49.454Z,9.80
2019-04-28T06:45:17.889Z,9.80
2019-04-28T06:47:47.834Z,9.80
2019-04-28T06:50:16.602Z,9.90
2019-04-28T06:52:45.022Z,10.00
2019-04-28T06:55:13.687Z,10.00
2019-04-28T06:57:42.579Z,10.00
2019-04-28T07:00:11.814Z,10.00
2019-04-28T07:02:40.276Z,10.10
2019-04-28T07:05:08.764Z,10.00
2019-04-28T07:07:37.174Z,9.90
2019-04-28T07:10:07.275Z,9.90
2019-04-28T07:12:35.710Z,9.80
2019-04-28T07:15:05.551Z,9.80
2019-04-28T07:17:34.168Z,9.90
2019-04-28T07:20:04.425Z,10.00
2019-04-28T07:22:33.434Z,10.30
2019-04-28T07:25:01.956Z,10.50
2019-04-28T07:27:30.429Z,10.60
2019-04-28T07:29:58.849Z,10.90
2019-04-28T07:32:27.325Z,10.90
2019-04-28T07:34:55.761Z,11.30
2019-04-28T07:37:24.278Z,11.50
2019-04-28T07:39:52.937Z,11.30
2019-04-28T07:42:21.386Z,11.60
2019-04-28T07:44:49.852Z,12.20
2019-04-28T07:47:18.368Z,11.80
2019-04-28T07:49:46.862Z,12.20
2019-04-28T07:52:20.239Z,12.40
2019-04-28T07:54:48.638Z,12.70
2019-04-28T07:57:17.144Z,13.50
2019-04-28T07:59:45.650Z,13.80
2019-04-28T08:02:14.066Z,13.90
2019-04-28T08:04:42.548Z,13.50
2019-04-28T08:07:15.211Z,12.80
2019-04-28T08:09:43.636Z,12.60
2019-04-28T08:12:12.074Z,13.20
2019-04-28T08:14:42.064Z,14.70
2019-04-28T08:17:10.568Z,15.00
2019-04-28T08:19:38.973Z,14.60
2019-04-28T08:22:07.570Z,14.10
2019-04-28T08:24:38.756Z,14.20
2019-04-28T08:27:08.722Z,14.90
2019-04-28T08:29:37.197Z,14.30
2019-04-28T08:32:22.386Z,13.90
2019-04-28T08:34:50.996Z,14.90
2019-04-28T08:37:22.020Z,16.00
2019-04-28T08:39:51.148Z,15.90
2019-04-28T08:42:20.230Z,15.60
2019-04-28T08:44:49.149Z,14.70
2019-04-28T08:47:19.273Z,13.70
2019-04-28T08:49:49.771Z,12.50
2019-04-28T08:52:18.849Z,11.70
2019-04-28T08:54:48.473Z,11.20
2019-04-28T08:57:17.524Z,10.80
2019-04-28T08:59:46.750Z,10.60
2019-04-28T09:02:16.337Z,10.60
2019-04-28T09:04:45.599Z,10.50
2019-04-28T09:07:14.642Z,10.50
2019-04-28T09:09:43.791Z,10.50
2019-04-28T09:12:17.049Z,10.60
2019-04-28T09:14:48.656Z,10.80
2019-04-28T09:17:17.763Z,11.60
2019-04-28T09:19:46.543Z,12.90
2019-04-28T09:22:15.026Z,13.90
2019-04-28T09:24:45.091Z,15.30
2019-04-28T09:27:13.744Z,15.50
2019-04-28T09:29:42.339Z,15.20
2019-04-28T09:32:10.778Z,14.60
2019-04-28T09:34:39.177Z,14.60
2019-04-28T09:37:07.769Z,13.70
2019-04-28T09:39:49.993Z,13.50
2019-04-28T09:42:34.674Z,13.40
2019-04-28T09:45:09.150Z,13.00
2019-04-28T09:47:37.682Z,13.00
2019-04-28T09:50:06.893Z,13.00
2019-04-28T09:52:35.395Z,13.90
2019-04-28T09:55:23.232Z,13.80
2019-04-28T09:57:49.447Z,14.10
2019-04-28T10:00:18.580Z,15.20
2019-04-28T10:02:47.582Z,16.30
2019-04-28T10:05:17.044Z,16.30
2019-04-28T10:07:45.954Z,15.70
2019-04-28T10:10:15.867Z,15.40
2019-04-28T10:12:46.630Z,15.20
2019-04-28T10:15:16.414Z,15.80
2019-04-28T10:17:45.581Z,15.80
2019-04-28T10:20:15.309Z,14.40
2019-04-28T10:22:46.117Z,13.60
2019-04-28T10:25:15.896Z,13.40
2019-04-28T10:27:45.413Z,14.20
2019-04-28T10:30:15.759Z,16.20
2019-04-28T10:32:46.734Z,16.70
2019-04-28T10:35:15.950Z,16.90
2019-04-28T10:37:45.785Z,16.20
2019-04-28T10:40:37.070Z,15.60
2019-04-28T10:43:06.288Z,14.90
2019-04-28T10:45:48.775Z,14.30
2019-04-28T10:48:17.575Z,14.40
2019-04-28T10:50:46.200Z,14.10
2019-04-28T10:53:14.647Z,14.10
2019-04-28T10:55:45.742Z,13.80
2019-04-28T10:58:14.755Z,13.60
2019-04-28T11:00:43.765Z,13.00
2019-04-28T11:03:12.257Z,13.10
2019-04-28T11:05:43.151Z,13.20
2019-04-28T11:08:29.011Z,12.90
2019-04-28T11:11:01.415Z,12.80
2019-04-28T11:13:29.900Z,12.70
2019-04-28T11:15:59.397Z,12.90
2019-04-28T11:18:30.674Z,13.20
2019-04-28T11:20:59.573Z,13.00
2019-04-28T11:23:29.105Z,13.00
2019-04-28T11:25:57.660Z,13.30
2019-04-28T11:28:26.127Z,13.40
2019-04-28T11:30:54.591Z,13.50
2019-04-28T11:33:41.081Z,13.80
2019-04-28T11:36:10.338Z,13.90
2019-04-28T11:38:39.385Z,14.00
2019-04-28T11:41:08.447Z,14.20
2019-04-28T11:43:36.927Z,14.30
2019-04-28T11:46:07.160Z,14.10
2019-04-28T11:48:36.053Z,13.80
2019-04-28T11:51:04.503Z,13.70
2019-04-28T11:53:32.981Z,13.60
2019-04-28T11:56:01.528Z,13.40
2019-04-28T11:58:29.973Z,13.60
2019-04-28T12:00:58.789Z,13.60
2019-04-28T12:03:27.264Z,13.50
2019-04-28T12:05:55.717Z,13.40
2019-04-28T12:08:24.151Z,13.20
2019-04-28T12:10:57.132Z,13.20
2019-04-28T12:13:27.191Z,13.30
2019-04-28T12:16:00.338Z,13.20
2019-04-28T12:18:45.380Z,13.40
2019-04-28T12:21:13.802Z,13.50
2019-04-28T12:23:42.225Z,13.70
2019-04-28T12:26:10.679Z,13.90
2019-04-28T12:28:39.134Z,14.00
2019-04-28T12:31:07.566Z,14.00
2019-04-28T12:33:36.120Z,15.20
2019-04-28T12:36:07.469Z,15.80
2019-04-28T12:38:35.954Z,15.50
2019-04-28T12:41:04.632Z,16.30
2019-04-28T12:43:33.045Z,17.30
2019-04-28T12:46:01.660Z,17.60
2019-04-28T12:48:32.607Z,17.20
2019-04-28T12:51:02.120Z,16.70
2019-04-28T12:53:30.538Z,16.40
2019-04-28T12:55:58.940Z,16.70
2019-04-28T12:58:27.831Z,16.60
2019-04-28T13:01:07.304Z,16.50
2019-04-28T13:03:37.412Z,17.60
2019-04-28T13:06:07.636Z,18.20
2019-04-28T13:08:36.182Z,18.20
2019-04-28T13:11:06.338Z,17.70
2019-04-28T13:13:34.865Z,18.40
2019-04-28T13:16:03.317Z,18.90
2019-04-28T13:18:31.766Z,19.10
2019-04-28T13:21:01.286Z,18.30
2019-04-28T13:23:29.772Z,19.20
2019-04-28T13:25:58.582Z,19.70
2019-04-28T13:28:27.052Z,19.50
2019-04-28T13:30:55.497Z,19.30
2019-04-28T13:33:23.948Z,19.30
2019-04-28T13:35:52.442Z,19.40
2019-04-28T13:38:20.904Z,20.60
2019-04-28T13:40:49.448Z,21.20
2019-04-28T13:43:18.032Z,20.20
2019-04-28T13:45:46.575Z,19.10
2019-04-28T13:48:16.229Z,17.90
2019-04-28T13:50:44.972Z,17.10
2019-04-28T13:53:13.469Z,16.20
2019-04-28T13:58:36.464Z,14.80
2019-04-28T14:01:11.009Z,14.60
2019-04-28T14:03:56.150Z,14.40
2019-04-28T14:06:28.468Z,14.10
2019-04-28T14:08:56.448Z,14.00
2019-04-28T14:11:25.042Z,13.90
2019-04-28T14:13:53.523Z,13.60
2019-04-28T14:16:22.018Z,13.30
2019-04-28T14:18:50.500Z,13.10
2019-04-28T14:21:18.938Z,12.80
2019-04-28T14:23:47.584Z,12.70
2019-04-28T14:26:16.171Z,12.60
2019-04-28T14:28:44.629Z,12.50
2019-04-28T14:31:13.074Z,12.40
2019-04-28T14:33:41.592Z,12.30
2019-04-28T14:36:09.995Z,12.30
2019-04-28T14:38:38.713Z,12.10
2019-04-28T14:41:07.245Z,12.00
2019-04-28T14:43:35.709Z,12.00
2019-04-28T14:46:04.316Z,12.10
2019-04-28T14:48:32.872Z,12.40
2019-04-28T14:51:01.371Z,13.20
2019-04-28T14:53:30.140Z,13.80
2019-04-28T14:55:58.555Z,14.00
2019-04-28T14:58:27.972Z,14.10
2019-04-28T15:01:05.005Z,14.10
2019-04-28T15:03:35.314Z,14.20
2019-04-28T15:06:08.326Z,14.10
2019-04-28T15:08:38.378Z,14.00
2019-04-28T15:11:14.087Z,13.90
2019-04-28T15:13:42.555Z,13.80
2019-04-28T15:16:11.104Z,13.70
2019-04-28T15:18:39.590Z,13.60
2019-04-28T15:21:08.224Z,13.50
2019-04-28T15:23:44.029Z,13.30
2019-04-28T15:26:12.529Z,13.30
2019-04-28T15:28:40.997Z,13.20
2019-04-28T15:31:09.417Z,13.10
2019-04-28T15:33:38.008Z,13.00
2019-04-28T15:36:06.605Z,12.90
2019-04-28T15:38:35.049Z,12.80
2019-04-28T15:41:03.468Z,12.80
2019-04-28T15:43:34.487Z,12.80
2019-04-28T15:46:02.127Z,12.60
2019-04-28T15:48:31.004Z,12.60
2019-04-28T15:50:59.438Z,12.60
2019-04-28T15:53:28.963Z,12.50
2019-04-28T15:56:01.491Z,12.40
2019-04-28T15:58:33.244Z,12.30
2019-04-28T16:01:01.873Z,12.30
2019-04-28T16:03:30.623Z,12.20
2019-04-28T16:05:59.973Z,12.30
2019-04-28T16:08:28.747Z,12.30
2019-04-28T16:10:57.230Z,12.40
2019-04-28T16:13:25.651Z,12.50
2019-04-28T16:15:54.153Z,12.60
2019-04-28T16:18:22.619Z,12.80
2019-04-28T16:20:51.129Z,12.70
2019-04-28T16:23:19.590Z,12.90
2019-04-28T16:25:48.069Z,12.80
2019-04-28T16:28:16.585Z,12.90
2019-04-28T16:30:45.203Z,12.90
2019-04-28T16:33:13.852Z,12.90
2019-04-28T16:35:42.280Z,13.00
2019-04-28T16:38:10.766Z,13.10
2019-04-28T16:40:39.511Z,13.00
2019-04-28T16:43:08.451Z,13.00
2019-04-28T16:45:36.860Z,12.90
2019-04-28T16:48:05.301Z,12.90
2019-04-28T16:50:33.737Z,12.90
2019-04-28T16:53:02.319Z,12.90
2019-04-28T16:55:35.124Z,12.80
2019-04-28T16:58:23.552Z,12.80
2019-04-28T17:01:01.235Z,12.70
2019-04-28T17:03:31.512Z,12.70
2019-04-28T17:05:59.987Z,12.70
2019-04-28T17:08:28.451Z,12.60
2019-04-28T17:10:57.427Z,12.60
2019-04-28T17:13:26.002Z,12.60
2019-04-28T17:15:54.516Z,12.60
2019-04-28T17:18:22.963Z,12.60
2019-04-28T17:20:54.344Z,12.50
2019-04-28T17:23:21.511Z,12.50
2019-04-28T17:25:49.980Z,12.50
2019-04-28T17:28:18.436Z,12.50
2019-04-28T17:30:47.179Z,12.50
2019-04-28T17:33:15.759Z,12.50
2019-04-28T17:35:44.211Z,12.50
2019-04-28T17:38:12.715Z,12.40
2019-04-28T17:40:41.264Z,12.40
2019-04-28T17:43:09.813Z,12.40
2019-04-28T17:45:38.471Z,12.40
2019-04-28T17:48:08.685Z,12.30
2019-04-28T17:50:37.444Z,12.30
2019-04-28T17:53:07.395Z,12.20
2019-04-28T17:55:35.940Z,12.20
2019-04-28T17:58:04.381Z,12.20
2019-04-28T18:00:37.617Z,12.10
2019-04-28T18:03:16.806Z,12.10
2019-04-28T18:05:47.306Z,12.00
2019-04-28T18:08:21.176Z,11.90
2019-04-28T18:10:46.024Z,11.90
2019-04-28T18:13:14.653Z,11.80
2019-04-28T18:16:00.610Z,11.70
2019-04-28T18:18:39.718Z,11.70
2019-04-28T18:21:08.282Z,11.70
2019-04-28T18:23:36.695Z,11.60
2019-04-28T18:26:05.184Z,11.50
2019-04-28T18:28:33.672Z,11.50
2019-04-28T18:31:12.498Z,11.40
2019-04-28T18:33:59.091Z,11.30
2019-04-28T18:36:31.887Z,11.30
2019-04-28T18:39:01.035Z,11.20
2019-04-28T18:41:43.190Z,11.20
2019-04-28T18:44:19.143Z,11.20
2019-04-28T18:46:47.561Z,11.20
2019-04-28T18:49:15.997Z,11.10
2019-04-28T18:51:44.542Z,11.00
2019-04-28T18:54:12.930Z,10.90
2019-04-28T18:56:41.357Z,10.80
2019-04-28T18:59:09.854Z,10.80
2019-04-28T19:01:45.536Z,10.70
2019-04-28T19:04:14.149Z,10.70
2019-04-28T19:06:43.079Z,10.60
2019-04-28T19:09:19.086Z,10.50
2019-04-28T19:11:49.160Z,10.40
2019-04-28T19:17:23.148Z,10.20
2019-04-28T19:19:51.663Z,10.10
2019-04-28T19:22:20.137Z,10.00
2019-04-28T19:24:48.538Z,9.90
2019-04-28T19:27:17.188Z,9.80
2019-04-28T19:29:45.672Z,9.80
2019-04-28T19:32:14.165Z,9.70
2019-04-28T19:34:46.950Z,9.60
2019-04-28T19:37:15.870Z,9.50
2019-04-28T19:39:44.338Z,9.40
2019-04-28T19:42:12.925Z,9.40
2019-04-28T19:44:41.396Z,9.30
2019-04-28T19:47:09.892Z,9.30
2019-04-28T19:49:38.319Z,9.20
2019-04-28T19:52:08.602Z,9.10
2019-04-28T19:54:40.189Z,9.10
2019-04-28T19:57:13.158Z,9.10
2019-04-28T19:59:49.019Z,9.00
2019-04-28T20:02:17.805Z,9.00
2019-04-28T20:04:46.253Z,8.90
2019-04-28T20:07:15.066Z,8.90
2019-04-28T20:09:43.478Z,8.80
2019-04-28T20:12:11.969Z,8.70
2019-04-28T20:14:40.386Z,8.70
2019-04-28T20:17:08.790Z,8.60
2019-04-28T20:19:37.319Z,8.60
2019-04-28T20:22:05.759Z,8.60
2019-04-28T20:24:46.646Z,8.60
2019-04-28T20:27:04.795Z,8.50
2019-04-28T20:29:33.334Z,8.50
2019-04-28T20:32:01.765Z,8.50
2019-04-28T20:34:30.190Z,8.40
2019-04-28T20:37:00.240Z,8.40
2019-04-28T20:39:33.258Z,8.40
2019-04-28T20:42:19.379Z,8.30
2019-04-28T20:44:47.900Z,8.30
2019-04-28T20:47:17.856Z,8.30
2019-04-28T20:49:46.273Z,8.20
2019-04-28T20:52:14.695Z,8.20
2019-04-28T20:54:43.714Z,8.20
2019-04-28T20:57:12.125Z,8.20
2019-04-28T20:59:40.549Z,8.20
2019-04-28T21:02:08.998Z,8.10
2019-04-28T21:04:37.557Z,8.10
2019-04-28T21:07:05.986Z,8.00
2019-04-28T21:09:34.419Z,8.00
2019-04-28T21:12:02.831Z,8.00
2019-04-28T21:14:31.269Z,7.90
2019-04-28T21:16:59.750Z,7.90
2019-04-28T21:19:28.168Z,7.90
2019-04-28T21:21:56.710Z,7.80
2019-04-28T21:24:25.128Z,7.80
2019-04-28T21:26:53.536Z,7.70
2019-04-28T21:29:21.938Z,7.70
2019-04-28T21:31:50.346Z,7.60
2019-04-28T21:34:18.767Z,7.60
2019-04-28T21:36:47.186Z,7.60
2019-04-28T21:39:35.539Z,7.50
2019-04-28T21:42:05.753Z,7.50
2019-04-28T21:44:35.802Z,7.50
2019-04-28T21:47:18.207Z,7.40
2019-04-28T21:49:46.622Z,7.40
2019-04-28T21:52:15.069Z,7.50
2019-04-28T21:54:43.466Z,7.60
2019-04-28T21:57:11.958Z,7.70
2019-04-28T21:59:40.502Z,7.70
2019-04-28T22:02:09.109Z,7.60
2019-04-28T22:04:37.597Z,7.60
2019-04-28T22:07:06.089Z,7.60
2019-04-28T22:09:34.514Z,7.50
2019-04-28T22:12:03.185Z,7.50
2019-04-28T22:14:36.922Z,7.40
2019-04-28T22:17:05.407Z,7.40
2019-04-28T22:19:33.810Z,7.30
2019-04-28T22:22:02.241Z,7.30
2019-04-28T22:24:35.313Z,7.20
2019-04-28T22:27:03.818Z,7.20
2019-04-28T22:29:32.278Z,7.10
2019-04-28T22:32:00.717Z,7.10
2019-04-28T22:34:33.138Z,7.10
2019-04-28T22:37:01.617Z,7.00
2019-04-28T22:39:30.022Z,7.10
2019-04-28T22:41:58.873Z,7.00
2019-04-28T22:44:27.900Z,7.00
2019-04-28T22:46:56.331Z,7.00
2019-04-28T22:49:24.823Z,7.00
2019-04-28T22:51:53.996Z,7.00
2019-04-28T22:54:26.857Z,7.00
2019-04-28T22:57:06.050Z,6.90
2019-04-28T22:59:39.006Z,6.90
2019-04-28T23:02:14.923Z,6.90
2019-04-28T23:05:00.407Z,6.80
2019-04-28T23:07:29.071Z,6.80
2019-04-28T23:09:57.626Z,6.80
2019-04-28T23:12:26.106Z,6.70
2019-04-28T23:14:54.722Z,6.70
2019-04-28T23:17:23.747Z,6.70
2019-04-28T23:19:52.447Z,6.70
2019-04-28T23:22:22.571Z,6.70
2019-04-28T23:24:51.003Z,6.70
2019-04-28T23:27:19.470Z,6.60
2019-04-28T23:29:47.881Z,6.60
2019-04-28T23:32:16.386Z,6.60
2019-04-28T23:34:44.911Z,6.60
2019-04-28T23:37:13.348Z,6.60
2019-04-28T23:39:41.784Z,6.60
2019-04-28T23:42:12.184Z,6.60
2019-04-28T23:44:40.611Z,6.50
2019-04-28T23:47:09.032Z,6.50
2019-04-28T23:49:37.473Z,6.50
2019-04-28T23:52:10.634Z,6.40
2019-04-28T23:54:40.752Z,6.40
2019-04-28T23:57:09.225Z,6.40
2019-04-28T23:59:38.953Z,6.40
